createdAt,value
2023-01-22T00:01:25.636Z,49.75
2023-01-22T00:03:55.602Z,51.00
2023-01-22T00:06:24.608Z,50.75
2023-01-22T00:08:53.496Z,50.00
2023-01-22T00:11:22.100Z,50.75
2023-01-22T00:13:50.457Z,53.00
2023-01-22T00:16:19.506Z,48.75
2023-01-22T00:18:47.991Z,49.00
2023-01-22T00:21:16.340Z,49.25
2023-01-22T00:23:44.612Z,49.75
2023-01-22T00:26:18.389Z,48.00
2023-01-22T00:28:46.708Z,47.00
2023-01-22T00:31:17.439Z,47.00
2023-01-22T00:33:47.275Z,49.00
2023-01-22T00:36:18.987Z,47.00
2023-01-22T00:38:47.685Z,49.00
2023-01-22T00:41:17.546Z,47.50
2023-01-22T00:43:46.057Z,47.75
2023-01-22T00:46:16.999Z,46.25
2023-01-22T00:48:50.611Z,49.75
2023-01-22T00:51:19.173Z,45.75
2023-01-22T00:53:47.705Z,47.00
2023-01-22T00:56:16.433Z,49.25
2023-01-22T00:58:44.881Z,47.25
2023-01-22T01:01:15.456Z,47.75
2023-01-22T01:03:44.079Z,49.00
2023-01-22T01:06:20.701Z,47.50
2023-01-22T01:08:50.605Z,48.50
2023-01-22T01:11:27.014Z,53.25
2023-01-22T01:13:55.552Z,51.75
2023-01-22T01:16:32.328Z,51.50
2023-01-22T01:19:07.016Z,49.25
2023-01-22T01:21:36.601Z,51.25
2023-01-22T01:24:05.221Z,51.25
2023-01-22T01:26:35.696Z,49.25
2023-01-22T01:29:05.782Z,51.75
2023-01-22T01:31:34.144Z,50.75
2023-01-22T01:34:02.542Z,49.00
2023-01-22T01:36:47.619Z,51.25
2023-01-22T01:39:16.984Z,52.00
2023-01-22T01:41:45.294Z,49.50
2023-01-22T01:44:16.813Z,49.25
2023-01-22T01:46:55.209Z,46.75
2023-01-22T01:49:31.300Z,46.50
2023-01-22T01:52:03.106Z,47.00
2023-01-22T01:54:32.608Z,46.50
2023-01-22T01:57:10.400Z,46.75
2023-01-22T01:59:40.380Z,45.75
2023-01-22T02:02:12.430Z,47.00
2023-01-22T02:04:40.777Z,46.25
2023-01-22T02:07:09.249Z,49.75
2023-01-22T02:09:37.725Z,49.25
2023-01-22T02:12:06.337Z,50.50
2023-01-22T02:14:38.772Z,49.75
2023-01-22T02:17:13.681Z,47.25
2023-01-22T02:19:42.863Z,48.00
2023-01-22T02:22:25.105Z,48.25
2023-01-22T02:24:53.432Z,47.25
2023-01-22T02:27:22.057Z,49.25
2023-01-22T02:29:51.083Z,48.00
2023-01-22T02:32:19.487Z,41.25
2023-01-22T02:34:47.782Z,45.00
2023-01-22T02:37:16.088Z,44.00
2023-01-22T02:39:44.459Z,43.75
2023-01-22T02:42:12.884Z,42.50
2023-01-22T02:44:41.177Z,40.75
2023-01-22T02:47:09.511Z,42.75
2023-01-22T02:49:37.882Z,41.75
2023-01-22T02:52:06.190Z,42.00
2023-01-22T02:54:34.493Z,39.25
2023-01-22T02:57:02.888Z,39.50
2023-01-22T02:59:31.237Z,41.00
2023-01-22T03:01:59.641Z,39.00
2023-01-22T03:04:29.753Z,40.75
2023-01-22T03:06:58.098Z,39.50
2023-01-22T03:09:26.384Z,37.25
2023-01-22T03:11:54.687Z,34.00
2023-01-22T03:14:41.291Z,35.50
2023-01-22T03:17:28.566Z,29.50
2023-01-22T03:20:15.182Z,32.75
2023-01-22T03:22:43.664Z,29.75
2023-01-22T03:25:12.048Z,28.25
2023-01-22T03:28:03.007Z,30.75
2023-01-22T03:30:31.333Z,29.25
2023-01-22T03:32:59.605Z,28.75
2023-01-22T03:35:27.896Z,31.00
2023-01-22T03:37:56.215Z,29.00
2023-01-22T03:40:24.479Z,30.00
2023-01-22T03:42:54.458Z,30.50
2023-01-22T03:45:22.771Z,30.75
2023-01-22T03:47:52.240Z,29.50
2023-01-22T03:50:20.576Z,26.50
2023-01-22T03:52:48.858Z,30.00
2023-01-22T03:55:17.871Z,28.75
2023-01-22T03:57:46.208Z,26.25
2023-01-22T04:00:15.101Z,31.00
2023-01-22T04:02:43.502Z,24.00
2023-01-22T04:05:11.836Z,24.50
2023-01-22T04:07:40.131Z,26.25
2023-01-22T04:10:09.243Z,27.00
2023-01-22T04:12:37.500Z,29.50
2023-01-22T04:15:06.252Z,26.00
2023-01-22T04:17:34.537Z,29.00
2023-01-22T04:20:02.939Z,28.75
2023-01-22T04:22:31.224Z,27.50
2023-01-22T04:24:59.510Z,29.50
2023-01-22T04:27:27.843Z,28.50
2023-01-22T04:29:56.122Z,27.75
2023-01-22T04:32:24.442Z,27.50
2023-01-22T04:34:52.765Z,26.00
2023-01-22T04:37:21.049Z,28.50
2023-01-22T04:39:49.356Z,31.25
2023-01-22T04:42:17.642Z,30.50
2023-01-22T04:44:45.922Z,29.25
2023-01-22T04:47:14.236Z,29.00
2023-01-22T04:49:42.609Z,29.75
2023-01-22T04:52:10.922Z,29.50
2023-01-22T04:54:39.238Z,27.00
2023-01-22T04:57:07.696Z,29.25
2023-01-22T04:59:36.052Z,25.50
2023-01-22T05:02:05.066Z,31.00
2023-01-22T05:04:33.373Z,29.00
2023-01-22T05:07:01.716Z,27.50
2023-01-22T05:09:30.001Z,29.00
2023-01-22T05:11:58.275Z,26.75
2023-01-22T05:14:26.677Z,25.75
2023-01-22T05:16:54.961Z,26.50
2023-01-22T05:19:23.365Z,25.25
2023-01-22T05:21:51.783Z,24.00
2023-01-22T05:24:20.084Z,24.25
2023-01-22T05:26:48.369Z,24.50
2023-01-22T05:29:16.682Z,23.00
2023-01-22T05:31:45.083Z,23.50
2023-01-22T05:34:13.403Z,21.25
2023-01-22T05:36:41.724Z,19.50
2023-01-22T05:39:10.062Z,21.25
2023-01-22T05:41:38.522Z,22.50
2023-01-22T05:44:07.536Z,21.00
2023-01-22T05:46:35.832Z,20.25
2023-01-22T05:49:04.299Z,14.50
2023-01-22T05:51:32.978Z,16.75
2023-01-22T05:54:01.682Z,16.75
2023-01-22T05:56:30.103Z,17.00
2023-01-22T05:58:58.738Z,14.75
2023-01-22T06:01:27.413Z,15.50
2023-01-22T06:03:55.713Z,14.75
2023-01-22T06:06:24.151Z,14.25
2023-01-22T06:08:53.728Z,12.25
2023-01-22T06:11:22.155Z,12.50
2023-01-22T06:13:50.545Z,11.75
2023-01-22T06:16:18.965Z,11.25
2023-01-22T06:18:47.277Z,13.00
2023-01-22T06:21:15.571Z,11.25
2023-01-22T06:23:43.875Z,12.25
2023-01-22T06:26:12.172Z,14.25
2023-01-22T06:28:40.456Z,14.25
2023-01-22T06:31:08.838Z,14.25
2023-01-22T06:33:39.053Z,11.50
2023-01-22T06:36:07.935Z,14.75
2023-01-22T06:38:37.402Z,14.00
2023-01-22T06:41:06.070Z,14.75
2023-01-22T06:43:34.459Z,17.00
2023-01-22T06:46:05.295Z,14.75
2023-01-22T06:48:33.902Z,15.00
2023-01-22T06:51:02.908Z,14.50
2023-01-22T06:53:31.224Z,14.00
2023-01-22T06:56:03.299Z,14.00
2023-01-22T06:58:32.034Z,15.00
2023-01-22T07:01:04.196Z,13.00
2023-01-22T07:03:32.892Z,14.00
2023-01-22T07:06:03.709Z,14.00
2023-01-22T07:08:33.990Z,11.50
2023-01-22T07:11:02.815Z,13.25
2023-01-22T07:13:31.269Z,11.50
2023-01-22T07:16:04.614Z,17.00
2023-01-22T07:18:33.248Z,11.25
2023-01-22T07:21:03.336Z,13.50
2023-01-22T07:23:31.997Z,15.00
2023-01-22T07:26:00.706Z,13.50
2023-01-22T07:28:29.117Z,12.00
2023-01-22T07:30:58.129Z,13.00
2023-01-22T07:33:26.593Z,12.50
2023-01-22T07:35:57.436Z,13.50
2023-01-22T07:38:28.773Z,13.75
2023-01-22T07:41:13.931Z,13.50
2023-01-22T07:43:53.554Z,14.75
2023-01-22T07:46:22.067Z,18.75
2023-01-22T07:48:50.364Z,12.75
2023-01-22T07:51:18.805Z,13.25
2023-01-22T07:53:47.365Z,14.25
2023-01-22T07:56:15.681Z,11.75
2023-01-22T07:58:43.989Z,15.75
2023-01-22T08:01:12.502Z,14.25
2023-01-22T08:03:41.001Z,13.75
2023-01-22T08:06:14.238Z,13.50
2023-01-22T08:08:43.562Z,14.25
2023-01-22T08:11:11.840Z,12.75
2023-01-22T08:13:40.343Z,17.00
2023-01-22T08:16:10.352Z,15.00
2023-01-22T08:18:39.310Z,16.00
2023-01-22T08:21:07.896Z,15.75
2023-01-22T08:23:36.418Z,12.50
2023-01-22T08:26:05.502Z,16.25
2023-01-22T08:28:33.870Z,14.75
2023-01-22T08:31:04.288Z,14.00
2023-01-22T08:33:34.629Z,14.75
2023-01-22T08:36:02.972Z,16.00
2023-01-22T08:38:31.360Z,17.25
2023-01-22T08:40:59.666Z,14.25
2023-01-22T08:43:28.018Z,15.50
2023-01-22T08:45:56.393Z,16.50
2023-01-22T08:48:24.720Z,17.75
2023-01-22T08:50:53.045Z,15.75
2023-01-22T08:53:21.355Z,21.25
2023-01-22T08:55:52.844Z,18.25
2023-01-22T08:58:23.069Z,19.25
2023-01-22T09:00:51.404Z,18.75
2023-01-22T09:03:19.780Z,19.75
2023-01-22T09:05:48.458Z,16.75
2023-01-22T09:08:16.771Z,15.50
2023-01-22T09:10:45.938Z,16.25
2023-01-22T09:13:14.269Z,17.00
2023-01-22T09:15:42.681Z,16.00
2023-01-22T09:18:11.471Z,15.50
2023-01-22T09:20:39.741Z,17.00
2023-01-22T09:23:08.417Z,17.50
2023-01-22T09:25:37.133Z,16.25
2023-01-22T09:28:08.139Z,13.75
2023-01-22T09:30:40.284Z,17.75
2023-01-22T09:33:08.712Z,15.50
2023-01-22T09:35:37.010Z,16.75
2023-01-22T09:38:06.666Z,17.50
2023-01-22T09:40:52.318Z,20.25
2023-01-22T09:43:29.738Z,16.25
2023-01-22T09:46:01.770Z,15.00
2023-01-22T09:48:44.897Z,17.00
2023-01-22T09:51:18.104Z,15.00
2023-01-22T09:53:54.267Z,17.00
2023-01-22T09:56:27.321Z,17.25
2023-01-22T09:58:57.615Z,16.50
2023-01-22T10:01:27.799Z,18.50
2023-01-22T10:04:04.185Z,20.00
2023-01-22T10:06:32.704Z,17.00
2023-01-22T10:09:20.583Z,14.50
2023-01-22T10:11:55.222Z,17.75
2023-01-22T10:14:27.875Z,17.75
2023-01-22T10:16:59.884Z,17.75
2023-01-22T10:19:39.748Z,15.25
2023-01-22T10:22:15.376Z,15.50
2023-01-22T10:24:43.634Z,18.00
2023-01-22T10:27:17.336Z,19.50
2023-01-22T10:30:03.337Z,18.00
2023-01-22T10:32:33.244Z,20.25
2023-01-22T10:35:02.992Z,18.50
2023-01-22T10:37:31.999Z,21.25
2023-01-22T10:40:01.479Z,27.25
2023-01-22T10:42:30.913Z,24.50
2023-01-22T10:45:12.616Z,23.50
2023-01-22T10:47:40.921Z,21.75
2023-01-22T10:50:19.007Z,23.25
2023-01-22T10:52:56.115Z,23.00
2023-01-22T10:55:32.286Z,22.75
2023-01-22T10:58:06.523Z,26.25
2023-01-22T11:00:51.207Z,24.75
2023-01-22T11:03:40.463Z,24.50
2023-01-22T11:06:25.588Z,21.50
2023-01-22T11:09:02.901Z,23.00
2023-01-22T11:11:39.367Z,21.25
2023-01-22T11:14:24.633Z,20.00
2023-01-22T11:16:55.293Z,21.00
2023-01-22T11:19:37.240Z,23.50
2023-01-22T11:22:16.065Z,20.00
2023-01-22T11:24:48.226Z,21.75
2023-01-22T11:27:27.038Z,25.00
2023-01-22T11:30:15.972Z,20.50
2023-01-22T11:32:57.932Z,21.00
2023-01-22T11:35:35.078Z,21.50
2023-01-22T11:38:15.183Z,18.75
2023-01-22T11:40:55.728Z,24.50
2023-01-22T11:43:56.629Z,24.00
2023-01-22T11:47:05.877Z,26.25
2023-01-22T11:49:40.179Z,22.25
2023-01-22T11:52:23.376Z,25.00
2023-01-22T11:55:02.495Z,27.50
2023-01-22T11:57:52.462Z,28.75
2023-01-22T12:00:29.026Z,30.50
2023-01-22T12:03:26.199Z,31.00
2023-01-22T12:06:14.061Z,29.25
2023-01-22T12:09:07.408Z,30.25
2023-01-22T12:11:53.718Z,27.25
2023-01-22T12:14:30.029Z,27.75
2023-01-22T12:17:39.510Z,27.00
2023-01-22T12:20:32.091Z,31.25
2023-01-22T12:23:27.283Z,31.50
2023-01-22T12:26:04.320Z,33.50
2023-01-22T12:28:55.703Z,42.25
2023-01-22T12:31:43.916Z,38.25
2023-01-22T12:34:21.266Z,32.50
2023-01-22T12:36:50.504Z,35.25
2023-01-22T12:39:31.699Z,41.00
2023-01-22T12:42:44.569Z,38.75
2023-01-22T12:45:28.480Z,38.75
2023-01-22T12:48:11.821Z,39.75
2023-01-22T12:50:53.541Z,41.50
2023-01-22T12:53:31.326Z,38.75
2023-01-22T12:56:03.541Z,39.50
2023-01-22T12:58:38.050Z,38.00
2023-01-22T13:01:34.123Z,38.25
2023-01-22T13:04:07.671Z,41.25
2023-01-22T13:06:41.622Z,37.25
2023-01-22T13:09:30.056Z,41.00
2023-01-22T13:12:25.664Z,39.00
2023-01-22T13:14:55.040Z,38.75
2023-01-22T13:17:31.470Z,39.25
2023-01-22T13:20:00.232Z,36.75
2023-01-22T13:22:29.326Z,38.25
2023-01-22T13:24:59.549Z,37.00
2023-01-22T13:27:34.746Z,37.50
2023-01-22T13:30:15.706Z,37.25
2023-01-22T13:32:44.159Z,38.50
2023-01-22T13:35:19.790Z,37.00
2023-01-22T13:37:52.818Z,36.25
2023-01-22T13:40:25.768Z,35.00
2023-01-22T13:42:56.002Z,35.50
2023-01-22T13:45:28.085Z,34.00
2023-01-22T13:48:03.971Z,36.50
2023-01-22T13:50:33.653Z,37.00
2023-01-22T13:53:03.353Z,36.75
2023-01-22T13:55:32.029Z,34.00
2023-01-22T13:58:06.191Z,34.75
2023-01-22T14:00:37.365Z,38.00
2023-01-22T14:03:23.000Z,36.25
2023-01-22T14:05:51.278Z,39.25
2023-01-22T14:08:19.746Z,37.50
2023-01-22T14:10:58.600Z,37.50
2023-01-22T14:13:26.939Z,38.75
2023-01-22T14:16:01.040Z,36.25
2023-01-22T14:18:30.521Z,35.00
2023-01-22T14:20:58.806Z,37.00
2023-01-22T14:23:27.216Z,36.25
2023-01-22T14:25:58.631Z,39.00
2023-01-22T14:28:30.007Z,36.75
2023-01-22T14:30:58.370Z,35.25
2023-01-22T14:33:33.020Z,38.75
2023-01-22T14:36:01.647Z,35.75
2023-01-22T14:38:30.252Z,35.00
2023-01-22T14:40:58.575Z,36.75
2023-01-22T14:43:27.057Z,36.25
2023-01-22T14:45:55.993Z,35.75
2023-01-22T14:48:24.396Z,35.25
2023-01-22T14:50:52.844Z,36.75
2023-01-22T14:53:21.242Z,34.75
2023-01-22T14:55:49.620Z,38.25
2023-01-22T14:58:17.932Z,34.25
2023-01-22T15:00:46.210Z,35.00
2023-01-22T15:03:17.097Z,34.00
2023-01-22T15:05:46.159Z,34.00
2023-01-22T15:08:14.810Z,36.75
2023-01-22T15:10:43.122Z,35.00
2023-01-22T15:13:11.509Z,36.00
2023-01-22T15:15:39.851Z,35.00
2023-01-22T15:18:08.143Z,37.75
2023-01-22T15:20:36.825Z,36.50
2023-01-22T15:23:05.140Z,36.00
2023-01-22T15:25:33.442Z,37.00
2023-01-22T15:28:01.830Z,38.00
2023-01-22T15:30:30.624Z,36.75
2023-01-22T15:32:58.956Z,36.25
2023-01-22T15:35:27.313Z,38.00
2023-01-22T15:37:55.593Z,40.75
2023-01-22T15:40:23.980Z,40.75
2023-01-22T15:42:52.231Z,38.25
2023-01-22T15:45:20.509Z,40.50
2023-01-22T15:47:49.123Z,35.00
2023-01-22T15:50:21.153Z,40.50
2023-01-22T15:52:53.892Z,40.50
2023-01-22T15:55:22.606Z,38.50
2023-01-22T15:57:50.962Z,38.50
2023-01-22T16:00:19.931Z,37.75
2023-01-22T16:02:48.458Z,37.00
2023-01-22T16:05:16.838Z,38.00
2023-01-22T16:07:45.137Z,40.25
2023-01-22T16:10:13.420Z,39.00
2023-01-22T16:12:41.704Z,40.00
2023-01-22T16:15:11.162Z,37.25
2023-01-22T16:17:39.496Z,38.50
2023-01-22T16:20:08.726Z,40.25
2023-01-22T16:22:36.999Z,39.50
2023-01-22T16:25:05.485Z,40.00
2023-01-22T16:27:33.776Z,38.50
2023-01-22T16:30:02.297Z,37.00
2023-01-22T16:32:30.734Z,38.50
2023-01-22T16:34:59.011Z,40.25
2023-01-22T16:37:27.524Z,40.00
2023-01-22T16:39:55.771Z,37.75
2023-01-22T16:42:24.062Z,36.00
2023-01-22T16:44:52.389Z,37.50
2023-01-22T16:47:21.247Z,37.50
2023-01-22T16:49:49.844Z,38.25
2023-01-22T16:52:22.704Z,39.25
2023-01-22T16:54:51.711Z,38.50
2023-01-22T16:57:21.072Z,38.50
2023-01-22T16:59:49.445Z,40.25
2023-01-22T17:02:19.933Z,41.00
2023-01-22T17:04:48.441Z,40.00
2023-01-22T17:07:31.951Z,42.00
2023-01-22T17:10:01.954Z,38.00
2023-01-22T17:12:30.431Z,41.00
2023-01-22T17:14:59.020Z,39.25
2023-01-22T17:17:27.404Z,41.00
2023-01-22T17:19:55.935Z,40.25
2023-01-22T17:22:25.138Z,41.50
2023-01-22T17:24:53.619Z,41.50
2023-01-22T17:27:22.510Z,42.75
2023-01-22T17:29:50.811Z,42.25
2023-01-22T17:32:19.090Z,40.50
2023-01-22T17:34:47.602Z,43.00
2023-01-22T17:37:16.116Z,40.75
2023-01-22T17:39:46.980Z,40.00
2023-01-22T17:42:15.376Z,40.25
2023-01-22T17:44:43.666Z,39.50
2023-01-22T17:47:12.338Z,39.75
2023-01-22T17:49:40.749Z,38.25
2023-01-22T17:52:10.107Z,38.50
2023-01-22T17:54:39.179Z,41.00
2023-01-22T17:57:07.583Z,39.50
2023-01-22T17:59:35.917Z,39.50
2023-01-22T18:02:04.252Z,41.50
2023-01-22T18:04:35.385Z,43.50
2023-01-22T18:07:05.250Z,41.50
2023-01-22T18:09:33.616Z,40.25
2023-01-22T18:12:03.823Z,43.00
2023-01-22T18:14:34.868Z,40.50
2023-01-22T18:17:03.611Z,43.00
2023-01-22T18:19:32.141Z,42.25
2023-01-22T18:22:00.459Z,42.50
2023-01-22T18:24:32.051Z,41.00
2023-01-22T18:27:00.912Z,42.00
2023-01-22T18:29:29.737Z,42.50
2023-01-22T18:31:58.183Z,41.25
2023-01-22T18:34:26.646Z,42.25
2023-01-22T18:36:55.041Z,41.75
2023-01-22T18:39:23.802Z,41.75
2023-01-22T18:41:52.108Z,40.50
2023-01-22T18:44:20.852Z,41.50
2023-01-22T18:46:52.603Z,41.50
2023-01-22T18:49:20.897Z,40.25
2023-01-22T18:51:49.589Z,43.75
2023-01-22T18:54:18.518Z,41.25
2023-01-22T18:56:47.699Z,41.75
2023-01-22T18:59:16.047Z,42.25
2023-01-22T19:01:50.948Z,43.00
2023-01-22T19:04:22.646Z,39.50
2023-01-22T19:06:53.665Z,41.50
2023-01-22T19:09:22.361Z,41.00
2023-01-22T19:11:53.083Z,40.75
2023-01-22T19:14:22.121Z,43.25
2023-01-22T19:16:54.841Z,43.25
2023-01-22T19:19:24.048Z,43.75
2023-01-22T19:21:56.325Z,42.00
2023-01-22T19:24:27.498Z,39.00
2023-01-22T19:26:57.358Z,41.25
2023-01-22T19:29:26.920Z,42.00
2023-01-22T19:31:57.855Z,38.25
2023-01-22T19:34:27.206Z,38.75
2023-01-22T19:37:01.355Z,41.25
2023-01-22T19:39:30.257Z,39.25
2023-01-22T19:42:02.728Z,39.50
2023-01-22T19:44:32.782Z,40.25
2023-01-22T19:47:02.871Z,39.50
2023-01-22T19:49:31.398Z,36.50
2023-01-22T19:51:59.945Z,40.00
2023-01-22T19:54:28.308Z,39.50
2023-01-22T19:56:56.660Z,37.50
2023-01-22T19:59:25.683Z,38.50
2023-01-22T20:01:54.330Z,36.50
2023-01-22T20:04:30.578Z,37.25
2023-01-22T20:07:03.417Z,38.00
2023-01-22T20:09:32.175Z,37.75
2023-01-22T20:12:01.267Z,41.00
2023-01-22T20:14:34.979Z,38.25
2023-01-22T20:17:04.322Z,39.00
2023-01-22T20:19:33.170Z,37.75
2023-01-22T20:22:05.287Z,40.50
2023-01-22T20:24:33.904Z,38.50
2023-01-22T20:27:02.410Z,39.50
2023-01-22T20:29:30.935Z,39.75
2023-01-22T20:32:00.185Z,38.75
2023-01-22T20:34:28.666Z,37.75
2023-01-22T20:36:57.080Z,38.00
2023-01-22T20:39:25.374Z,36.75
2023-01-22T20:41:55.661Z,39.50
2023-01-22T20:44:24.530Z,39.75
2023-01-22T20:46:52.949Z,39.00
2023-01-22T20:49:21.280Z,39.75
2023-01-22T20:51:49.600Z,37.75
2023-01-22T20:54:19.344Z,39.50
2023-01-22T20:56:47.690Z,40.50
2023-01-22T20:59:20.759Z,39.25
2023-01-22T21:01:49.581Z,39.50
2023-01-22T21:04:19.767Z,40.75
2023-01-22T21:06:48.661Z,38.75
2023-01-22T21:09:17.029Z,37.25
2023-01-22T21:11:45.510Z,39.50
2023-01-22T21:14:18.708Z,37.75
2023-01-22T21:16:47.191Z,40.00
2023-01-22T21:19:20.608Z,37.25
2023-01-22T21:21:49.008Z,40.00
2023-01-22T21:24:18.087Z,38.50
2023-01-22T21:26:46.772Z,40.00
2023-01-22T21:29:18.230Z,38.25
2023-01-22T21:31:49.939Z,38.75
2023-01-22T21:34:20.825Z,39.50
2023-01-22T21:36:50.258Z,39.75
2023-01-22T21:39:22.290Z,37.50
2023-01-22T21:41:50.696Z,41.50
2023-01-22T21:44:39.339Z,38.25
2023-01-22T21:47:07.763Z,39.00
2023-01-22T21:49:37.046Z,40.25
2023-01-22T21:52:07.114Z,38.75
2023-01-22T21:54:38.795Z,40.00
2023-01-22T21:57:08.127Z,41.00
2023-01-22T21:59:39.154Z,41.75
2023-01-22T22:02:08.311Z,39.00
2023-01-22T22:04:36.935Z,40.00
2023-01-22T22:07:05.219Z,40.50
2023-01-22T22:09:33.488Z,41.75
2023-01-22T22:12:03.640Z,40.25
2023-01-22T22:14:32.308Z,41.25
2023-01-22T22:17:00.856Z,44.00
2023-01-22T22:19:29.820Z,43.75
2023-01-22T22:21:58.182Z,44.25
2023-01-22T22:24:26.557Z,40.25
2023-01-22T22:26:54.921Z,44.25
2023-01-22T22:29:23.245Z,43.25
2023-01-22T22:31:51.617Z,45.25
2023-01-22T22:34:19.982Z,42.00
2023-01-22T22:36:48.547Z,46.75
2023-01-22T22:39:16.841Z,43.75
2023-01-22T22:41:45.413Z,44.75
2023-01-22T22:44:15.917Z,44.25
2023-01-22T22:46:44.284Z,44.50
2023-01-22T22:49:14.611Z,45.00
2023-01-22T22:51:44.384Z,45.25
2023-01-22T22:54:18.066Z,45.75
2023-01-22T22:56:48.322Z,47.75
2023-01-22T22:59:20.594Z,47.75
2023-01-22T23:01:50.434Z,45.25
2023-01-22T23:04:18.865Z,43.00
2023-01-22T23:06:47.853Z,43.25
2023-01-22T23:09:20.458Z,41.50
2023-01-22T23:11:52.497Z,43.75
2023-01-22T23:14:21.002Z,42.00
2023-01-22T23:16:50.413Z,48.00
2023-01-22T23:19:25.366Z,43.25
2023-01-22T23:21:59.716Z,44.25
2023-01-22T23:24:28.750Z,46.00
2023-01-22T23:26:57.934Z,45.50
2023-01-22T23:29:27.787Z,48.00
2023-01-22T23:31:57.568Z,45.75
2023-01-22T23:34:25.994Z,46.00
2023-01-22T23:36:54.634Z,45.50
2023-01-22T23:39:23.241Z,45.75
2023-01-22T23:41:51.686Z,44.25
2023-01-22T23:44:20.031Z,46.25
2023-01-22T23:46:48.544Z,47.75
2023-01-22T23:49:16.855Z,49.25
2023-01-22T23:51:46.084Z,48.25
2023-01-22T23:54:14.622Z,46.50
2023-01-22T23:56:42.961Z,48.25
2023-01-22T23:59:12.405Z,49.50
